Time;durP1;ratioP1;P1;durP2;ratioP2;P2;SDS_P1;SDS_P2;PMS_P1;PMS_P2;Temp;Humidity;BMP_temperature;BMP_pressure;BME280_temperature;BME280_humidity;BME280_pressure;Samples;Min_cycle;Max_cycle;Signal;HPM_P1;HPM_P2
2022/04/17 00:01:33;;;;;;;60.50;28.95;;;8.00;99.90;;;;;;5109468;28;20024;-62
2022/04/17 00:03:59;;;;;;;58.70;27.92;;;7.90;99.90;;;;;;5100870;28;20023;-62
2022/04/17 00:06:25;;;;;;;62.00;28.67;;;7.90;99.90;;;;;;5098256;28;20089;-63
2022/04/17 00:08:50;;;;;;;65.50;29.63;;;7.90;99.90;;;;;;5091273;28;20500;-63
2022/04/17 00:11:16;;;;;;;68.30;30.25;;;7.80;99.90;;;;;;5091895;28;20519;-62
2022/04/17 00:13:44;;;;;;;65.68;28.58;;;7.90;99.90;;;;;;5110115;28;20024;-62
2022/04/17 00:16:10;;;;;;;64.32;28.15;;;7.80;99.90;;;;;;5110308;28;20028;-63
2022/04/17 00:18:36;;;;;;;65.75;30.52;;;7.80;99.90;;;;;;5096728;28;20024;-63
2022/04/17 00:21:03;;;;;;;68.95;30.30;;;7.80;99.90;;;;;;5113657;28;20028;-63
2022/04/17 00:23:28;;;;;;;68.32;30.65;;;7.90;99.90;;;;;;5111694;28;20124;-62
2022/04/17 00:25:54;;;;;;;58.88;27.88;;;8.10;99.90;;;;;;5102854;28;20055;-63
2022/04/17 00:28:20;;;;;;;65.80;29.23;;;8.10;99.90;;;;;;5109833;28;20028;-63
2022/04/17 00:30:45;;;;;;;61.15;27.33;;;8.00;99.90;;;;;;5093907;28;20089;-63
2022/04/17 00:33:11;;;;;;;65.85;28.63;;;8.00;99.90;;;;;;5096643;28;20518;-64
2022/04/17 00:35:38;;;;;;;70.32;31.30;;;7.90;99.90;;;;;;5114694;28;20037;-63
2022/04/17 00:38:04;;;;;;;76.30;30.60;;;7.80;99.90;;;;;;5095296;28;20043;-63
2022/04/17 00:40:30;;;;;;;60.67;29.05;;;7.80;99.90;;;;;;5094161;28;20034;-63
2022/04/17 00:42:59;;;;;;;74.57;32.63;;;7.80;99.90;;;;;;5092982;28;20020;-64
2022/04/17 00:45:25;;;;;;;72.32;29.85;;;7.70;99.90;;;;;;5113042;28;20050;-63
2022/04/17 00:47:51;;;;;;;71.25;31.35;;;7.70;99.90;;;;;;5113421;28;20020;-62
2022/04/17 00:50:17;;;;;;;75.53;30.92;;;7.70;99.90;;;;;;5108834;28;20555;-63
2022/04/17 00:52:44;;;;;;;73.00;30.42;;;7.60;99.90;;;;;;5100548;28;20479;-63
2022/04/17 00:55:11;;;;;;;73.95;30.50;;;7.60;99.90;;;;;;5094120;28;20098;-62
2022/04/17 00:57:37;;;;;;;84.28;31.42;;;7.60;99.90;;;;;;5100713;28;20055;-63
2022/04/17 01:00:05;;;;;;;80.20;32.25;;;7.60;99.90;;;;;;5107775;28;20024;-63
2022/04/17 01:02:31;;;;;;;80.25;34.13;;;7.50;99.90;;;;;;5107392;28;20082;-63
2022/04/17 01:04:57;;;;;;;74.70;31.83;;;7.50;99.90;;;;;;5098102;28;20024;-62
2022/04/17 01:07:23;;;;;;;80.95;32.60;;;7.50;99.90;;;;;;5112325;28;20030;-62
2022/04/17 01:09:51;;;;;;;77.18;31.75;;;7.50;99.90;;;;;;5095191;28;20029;-61
2022/04/17 01:12:18;;;;;;;73.32;31.20;;;7.40;99.90;;;;;;5093551;28;20059;-63
2022/04/17 01:14:44;;;;;;;74.10;32.50;;;7.40;99.90;;;;;;5094324;28;20031;-63
2022/04/17 01:17:12;;;;;;;81.40;35.30;;;7.30;99.90;;;;;;5093728;28;20028;-63
2022/04/17 01:19:39;;;;;;;72.07;30.38;;;7.30;99.90;;;;;;5096932;28;20036;-62
2022/04/17 01:22:14;;;;;;;71.97;30.38;;;7.30;99.90;;;;;;5113374;28;20123;-62
2022/04/17 01:27:25;;;;;;;76.13;32.22;;;7.40;99.90;;;;;;5096773;28;20391;-63
2022/04/17 01:29:51;;;;;;;83.25;35.25;;;7.30;99.90;;;;;;5095921;28;20036;-63
2022/04/17 01:32:17;;;;;;;79.90;32.67;;;7.40;99.90;;;;;;5103035;28;20040;-63
2022/04/17 01:34:43;;;;;;;81.25;34.47;;;7.40;99.90;;;;;;5109229;28;20028;-63
2022/04/17 01:37:10;;;;;;;91.53;35.90;;;7.40;99.90;;;;;;5100580;28;20032;-63
2022/04/17 01:39:36;;;;;;;86.47;34.47;;;7.30;99.90;;;;;;5093297;28;20081;-62
2022/04/17 01:42:02;;;;;;;76.90;32.35;;;7.30;99.90;;;;;;5112587;28;20055;-63
2022/04/17 01:44:29;;;;;;;85.45;34.45;;;7.20;99.90;;;;;;5113275;28;20031;-63
2022/04/17 01:46:56;;;;;;;79.65;32.67;;;7.20;99.90;;;;;;5104746;28;20458;-63
2022/04/17 01:49:23;;;;;;;82.38;35.22;;;7.20;99.90;;;;;;5094038;28;20111;-63
2022/04/17 01:51:52;;;;;;;85.40;33.85;;;7.20;99.90;;;;;;5105124;28;20036;-63
2022/04/17 01:54:19;;;;;;;90.43;35.08;;;7.20;99.90;;;;;;5092929;28;20028;-63
2022/04/17 01:56:49;;;;;;;92.53;36.83;;;7.20;99.90;;;;;;5093719;28;20030;-63
2022/04/17 01:59:17;;;;;;;88.68;33.40;;;7.20;99.90;;;;;;5104151;28;20403;-63
2022/04/17 02:01:42;;;;;;;;;;;7.20;99.90;;;;;;5100469;28;20043;-63
2022/04/17 02:04:09;;;;;;;79.35;32.10;;;7.20;99.90;;;;;;5104425;28;19908;-63
2022/04/17 02:06:39;;;;;;;92.30;35.10;;;7.20;99.90;;;;;;5112285;28;20030;-63
2022/04/17 02:09:07;;;;;;;89.13;35.08;;;7.20;99.90;;;;;;5103720;28;20039;-63
2022/04/17 02:11:34;;;;;;;91.20;33.65;;;7.30;99.90;;;;;;5103114;28;20043;-62
2022/04/17 02:14:00;;;;;;;78.18;33.08;;;7.30;99.90;;;;;;5101437;28;20027;-63
2022/04/17 02:16:26;;;;;;;82.10;35.03;;;7.30;99.90;;;;;;5112305;28;20028;-62
2022/04/17 02:18:52;;;;;;;81.40;32.70;;;7.30;99.90;;;;;;5110930;28;20036;-62
2022/04/17 02:21:19;;;;;;;74.50;31.75;;;7.30;99.90;;;;;;5110667;28;20521;-63
2022/04/17 02:23:45;;;;;;;73.43;31.05;;;7.20;99.90;;;;;;5102916;27;20058;-62
2022/04/17 02:26:12;;;;;;;68.72;28.38;;;7.20;99.90;;;;;;5093590;28;20069;-62
2022/04/17 02:28:39;;;;;;;72.18;30.55;;;7.00;99.90;;;;;;5107012;28;20040;-62
2022/04/17 02:31:07;;;;;;;71.22;28.60;;;6.80;99.90;;;;;;5097746;28;20502;-63
2022/04/17 02:33:33;;;;;;;66.95;29.27;;;6.80;99.90;;;;;;5105890;28;20020;-62
2022/04/17 02:35:59;;;;;;;64.00;30.00;;;6.80;99.90;;;;;;5099291;28;20035;-63
2022/04/17 02:38:25;;;;;;;66.03;28.48;;;6.70;99.90;;;;;;5092011;28;20020;-62
2022/04/17 02:40:52;;;;;;;66.28;27.08;;;6.70;99.90;;;;;;5091645;28;20047;-62
2022/04/17 02:43:18;;;;;;;60.87;27.27;;;6.60;99.90;;;;;;5102313;28;20032;-62
2022/04/17 02:45:44;;;;;;;69.70;31.63;;;6.50;99.90;;;;;;5112122;28;20260;-63
2022/04/17 02:48:10;;;;;;;74.22;29.80;;;6.50;99.90;;;;;;5111650;28;20532;-62
2022/04/17 02:50:36;;;;;;;74.90;31.60;;;6.50;99.90;;;;;;5110182;28;20031;-61
2022/04/17 02:53:03;;;;;;;76.57;29.77;;;6.50;99.90;;;;;;5102085;28;20110;-62
2022/04/17 02:55:29;;;;;;;71.47;29.55;;;6.40;99.90;;;;;;5111812;28;20032;-63
2022/04/17 02:57:55;;;;;;;77.35;31.90;;;6.30;99.90;;;;;;5096961;28;20396;-63
2022/04/17 03:00:21;;;;;;;76.85;33.58;;;6.30;99.90;;;;;;5092986;28;20031;-62
2022/04/17 03:05:38;;;;;;;79.53;31.90;;;6.30;99.90;;;;;;5096973;28;20092;-63
2022/04/17 03:08:08;;;;;;;92.18;35.78;;;6.40;99.90;;;;;;5094137;28;20031;-62
2022/04/17 03:10:35;;;;;;;94.60;36.67;;;6.40;99.90;;;;;;5093277;28;20036;-62
2022/04/17 03:13:00;;;;;;;82.00;31.33;;;6.40;99.90;;;;;;5105398;28;20036;-62
2022/04/17 03:15:26;;;;;;;77.97;33.22;;;6.40;99.90;;;;;;5101349;28;20506;-62
2022/04/17 03:17:52;;;;;;;81.95;32.40;;;6.30;99.90;;;;;;5109406;28;20108;-62
2022/04/17 03:20:19;;;;;;;92.13;35.45;;;6.20;99.90;;;;;;5097494;28;20032;-62
2022/04/17 03:22:44;;;;;;;99.93;36.55;;;6.20;99.90;;;;;;5105290;28;20028;-62
2022/04/17 03:25:11;;;;;;;103.65;36.85;;;6.10;99.90;;;;;;5111579;28;20057;-62
2022/04/17 03:27:37;;;;;;;100.87;36.47;;;6.00;99.90;;;;;;5096483;28;20028;-62
2022/04/17 03:30:04;;;;;;;101.10;35.53;;;6.00;99.90;;;;;;5110499;28;20030;-63
2022/04/17 03:32:31;;;;;;;91.32;35.67;;;6.00;99.90;;;;;;5098709;28;20024;-62
2022/04/17 03:34:57;;;;;;;94.15;34.47;;;6.00;99.90;;;;;;5111550;28;20035;-62
2022/04/17 03:37:23;;;;;;;86.30;32.83;;;6.00;99.90;;;;;;5101975;28;20023;-62
2022/04/17 03:39:49;;;;;;;81.22;32.53;;;6.10;99.90;;;;;;5108347;28;20019;-61
2022/04/17 03:42:18;;;;;;;101.38;37.50;;;6.10;99.90;;;;;;5092512;28;20064;-62
2022/04/17 03:44:46;;;;;;;115.28;38.85;;;6.00;99.90;;;;;;5103987;28;20032;-62
2022/04/17 03:47:12;;;;;;;141.27;43.90;;;6.00;99.90;;;;;;5111057;28;20053;-62
2022/04/17 03:49:38;;;;;;;134.20;42.38;;;6.00;99.90;;;;;;5091092;28;20396;-62
2022/04/17 03:52:05;;;;;;;123.40;40.67;;;6.00;99.90;;;;;;5098681;28;20024;-62
2022/04/17 03:54:30;;;;;;;115.28;40.83;;;6.00;99.90;;;;;;5108817;28;20024;-63
2022/04/17 03:56:56;;;;;;;124.40;42.95;;;6.00;99.90;;;;;;5096107;28;20020;-62
2022/04/17 03:59:22;;;;;;;136.27;42.40;;;6.20;99.90;;;;;;5095097;28;20035;-62
2022/04/17 04:01:48;;;;;;;130.30;43.03;;;6.10;99.90;;;;;;5109933;28;20039;-62
2022/04/17 04:04:17;;;;;;;148.60;45.30;;;6.10;99.90;;;;;;5102200;28;20043;-62
2022/04/17 04:06:43;;;;;;;156.75;46.15;;;6.10;99.90;;;;;;5103798;28;20042;-62
2022/04/17 04:09:09;;;;;;;159.40;46.47;;;6.00;99.90;;;;;;5111424;28;20028;-62
2022/04/17 04:11:35;;;;;;;164.63;48.05;;;6.00;99.90;;;;;;5106978;28;20114;-62
2022/04/17 04:14:03;;;;;;;176.27;48.40;;;6.00;99.90;;;;;;5115157;28;20039;-62
2022/04/17 04:16:29;;;;;;;131.38;43.03;;;6.10;99.90;;;;;;5108606;28;20019;-63
2022/04/17 04:18:54;;;;;;;157.07;46.53;;;6.10;99.90;;;;;;5094641;28;20031;-63
2022/04/17 04:21:20;;;;;;;156.88;46.80;;;6.10;99.90;;;;;;5094622;28;20031;-62
2022/04/17 04:23:46;;;;;;;145.52;43.92;;;6.20;99.90;;;;;;5104496;28;20028;-63
2022/04/17 04:26:11;;;;;;;134.57;42.45;;;6.20;99.90;;;;;;5095430;28;20028;-63
2022/04/17 04:28:37;;;;;;;151.95;47.38;;;6.20;99.90;;;;;;5094314;28;20028;-62
2022/04/17 04:31:09;;;;;;;121.53;41.08;;;6.30;99.90;;;;;;5110935;28;20028;-62
2022/04/17 04:33:36;;;;;;;152.73;46.17;;;6.40;99.90;;;;;;5094463;28;20488;-63
2022/04/17 04:36:04;;;;;;;191.27;50.58;;;6.20;99.90;;;;;;5112472;28;20399;-63
2022/04/17 04:38:31;;;;;;;162.38;45.97;;;6.10;99.90;;;;;;5109346;28;20042;-63
2022/04/17 04:40:57;;;;;;;153.18;46.33;;;6.10;99.90;;;;;;5095017;28;20039;-62
2022/04/17 04:43:23;;;;;;;150.35;46.10;;;6.10;99.90;;;;;;5094151;28;20036;-62
2022/04/17 04:46:06;;;;;;;146.07;46.28;;;6.10;99.90;;;;;;5094477;28;20381;-62
2022/04/17 04:51:29;;;;;;;176.02;48.58;;;6.00;99.90;;;;;;5094313;28;20047;-62
2022/04/17 04:53:56;;;;;;;133.23;41.17;;;6.00;99.90;;;;;;5094130;28;20392;-63
2022/04/17 04:56:23;;;;;;;149.57;46.17;;;6.00;99.90;;;;;;5107240;28;20024;-63
2022/04/17 04:58:49;;;;;;;173.40;48.40;;;6.00;99.90;;;;;;5113734;27;20024;-62
2022/04/17 05:01:15;;;;;;;166.13;46.60;;;6.00;99.90;;;;;;5114096;28;20096;-63
2022/04/17 05:03:41;;;;;;;205.68;51.42;;;5.90;99.90;;;;;;5104789;27;20064;-62
2022/04/17 05:06:10;;;;;;;179.75;50.50;;;6.00;99.90;;;;;;5108284;28;20449;-63
2022/04/17 05:08:36;;;;;;;179.55;47.85;;;6.00;99.90;;;;;;5107862;28;20024;-62
2022/04/17 05:11:01;;;;;;;150.65;43.92;;;6.00;99.90;;;;;;5094476;28;20051;-62
2022/04/17 05:13:27;;;;;;;167.10;46.97;;;6.00;99.90;;;;;;5093562;28;20032;-61
2022/04/17 05:15:53;;;;;;;158.98;47.72;;;6.00;99.90;;;;;;5105084;28;20094;-62
2022/04/17 05:18:19;;;;;;;131.05;42.58;;;6.10;99.90;;;;;;5111479;28;20027;-62
2022/04/17 05:20:44;;;;;;;137.52;42.47;;;6.10;99.90;;;;;;5113408;28;20027;-63
2022/04/17 05:23:26;;;;;;;153.93;47.35;;;6.20;99.90;;;;;;5112175;28;20085;-62
2022/04/17 05:25:54;;;;;;;157.50;46.13;;;6.20;99.90;;;;;;5111472;28;20156;-62
2022/04/17 05:28:21;;;;;;;172.52;47.72;;;6.30;99.90;;;;;;5110869;28;20023;-62
2022/04/17 05:30:48;;;;;;;149.63;44.47;;;6.30;99.90;;;;;;5098939;28;20023;-61
2022/04/17 05:33:16;;;;;;;141.57;43.58;;;6.40;99.90;;;;;;5113275;28;20039;-62
2022/04/17 05:35:42;;;;;;;152.38;44.28;;;6.50;99.90;;;;;;5112562;28;20027;-61
2022/04/17 05:38:08;;;;;;;142.18;44.33;;;6.50;99.90;;;;;;5094991;28;20032;-62
2022/04/17 05:40:35;;;;;;;126.30;41.22;;;6.50;99.90;;;;;;5098898;28;20008;-61
2022/04/17 05:43:01;;;;;;;;;;;6.60;99.90;;;;;;5093620;28;20024;-61
2022/04/17 05:45:27;;;;;;;128.13;41.08;;;6.60;99.90;;;;;;5092903;28;20328;-62
2022/04/17 05:47:53;;;;;;;121.40;42.22;;;6.70;99.90;;;;;;5093991;28;20028;-62
2022/04/17 05:50:19;;;;;;;116.95;40.75;;;6.80;99.90;;;;;;5092949;28;20036;-62
2022/04/17 05:52:45;;;;;;;114.47;41.90;;;6.80;99.90;;;;;;5097817;28;20030;-62
2022/04/17 05:55:11;;;;;;;116.45;39.80;;;7.00;99.90;;;;;;5100664;28;20031;-62
2022/04/17 05:57:36;;;;;;;106.55;37.80;;;7.10;99.90;;;;;;5096634;27;20453;-61
2022/04/17 06:00:08;;;;;;;85.50;35.40;;;7.10;99.90;;;;;;5112528;28;20032;-63
2022/04/17 06:02:34;;;;;;;111.70;39.78;;;7.10;99.90;;;;;;5110336;28;20624;-63
2022/04/17 06:05:00;;;;;;;102.65;38.38;;;7.20;99.90;;;;;;5110832;28;20024;-62
2022/04/17 06:07:28;;;;;;;104.57;38.67;;;7.30;99.90;;;;;;5111110;28;20031;-62
2022/04/17 06:09:54;;;;;;;95.32;37.25;;;7.50;99.90;;;;;;5097277;28;20024;-62
2022/04/17 06:12:20;;;;;;;103.80;38.75;;;7.60;99.90;;;;;;5108730;28;20058;-63
2022/04/17 06:14:45;;;;;;;85.38;35.22;;;7.70;99.90;;;;;;5112266;28;20059;-62
2022/04/17 06:17:11;;;;;;;82.20;34.03;;;7.80;99.90;;;;;;5111530;28;20046;-63
2022/04/17 06:19:37;;;;;;;81.30;34.03;;;7.90;99.90;;;;;;5112138;28;20379;-63
2022/04/17 06:22:03;;;;;;;74.90;31.77;;;8.00;99.90;;;;;;5096157;28;20020;-63
2022/04/17 06:24:29;;;;;;;76.03;32.67;;;8.10;99.90;;;;;;5112083;28;20500;-62
2022/04/17 06:26:54;;;;;;;68.70;30.15;;;8.20;99.90;;;;;;5110538;28;20107;-63
2022/04/17 06:29:20;;;;;;;65.63;29.77;;;8.40;99.90;;;;;;5092220;28;20059;-63
2022/04/17 06:31:46;;;;;;;68.70;29.80;;;8.50;99.90;;;;;;5106105;28;20422;-62
2022/04/17 06:34:12;;;;;;;59.45;28.10;;;8.70;99.90;;;;;;5094762;28;20107;-62
2022/04/17 06:36:39;;;;;;;62.10;26.52;;;8.80;99.90;;;;;;5105791;28;20373;-62
2022/04/17 06:39:05;;;;;;;59.85;28.30;;;8.90;99.90;;;;;;5092183;28;20064;-62
2022/04/17 06:41:31;;;;;;;57.97;26.00;;;9.00;99.90;;;;;;5093902;28;20445;-62
2022/04/17 06:43:56;;;;;;;48.35;23.42;;;9.10;99.90;;;;;;5101645;28;20106;-62
2022/04/17 06:46:22;;;;;;;49.70;24.08;;;9.20;99.90;;;;;;5109378;28;20023;-62
2022/04/17 06:48:48;;;;;;;51.58;24.33;;;9.40;99.90;;;;;;5109242;28;20411;-62
2022/04/17 06:51:14;;;;;;;45.63;23.50;;;9.60;99.90;;;;;;5092431;28;20464;-63
2022/04/17 06:53:39;;;;;;;44.72;21.80;;;9.70;99.90;;;;;;5091776;28;20028;-62
2022/04/17 06:56:07;;;;;;;42.55;22.38;;;9.80;99.90;;;;;;5091430;28;20534;-62
2022/04/17 06:58:33;;;;;;;41.28;22.10;;;10.00;99.90;;;;;;5092553;28;20032;-62
2022/04/17 07:00:59;;;;;;;48.35;23.25;;;10.20;99.90;;;;;;5108456;28;20035;-62
2022/04/17 07:03:24;;;;;;;35.65;19.92;;;10.40;99.90;;;;;;5095537;28;20533;-62
2022/04/17 07:05:50;;;;;;;40.40;20.48;;;10.60;99.90;;;;;;5091479;28;20028;-63
2022/04/17 07:08:16;;;;;;;32.95;16.77;;;10.70;99.90;;;;;;5100989;28;20125;-62
2022/04/17 07:10:42;;;;;;;31.15;16.83;;;10.90;99.90;;;;;;5110323;28;20063;-62
2022/04/17 07:13:11;;;;;;;26.58;14.05;;;11.10;99.90;;;;;;5097245;28;20532;-63
2022/04/17 07:15:37;;;;;;;25.25;13.88;;;11.20;99.90;;;;;;5108510;28;20376;-63
2022/04/17 07:18:03;;;;;;;25.58;12.75;;;11.40;99.90;;;;;;5111271;28;20027;-62
2022/04/17 07:20:30;;;;;;;20.40;11.23;;;11.50;99.90;;;;;;5111432;28;20028;-62
2022/04/17 07:22:55;;;;;;;23.67;12.80;;;11.70;99.90;;;;;;5097638;28;20400;-62
2022/04/17 07:25:21;;;;;;;17.48;10.50;;;11.80;99.90;;;;;;5093393;28;20028;-62
2022/04/17 07:27:53;;;;;;;25.77;12.93;;;12.00;99.90;;;;;;5094469;28;20055;-63
2022/04/17 07:30:22;;;;;;;23.10;13.05;;;12.20;99.90;;;;;;5102319;28;20107;-63
2022/04/17 07:32:51;;;;;;;21.38;12.52;;;12.30;99.90;;;;;;5102324;28;20035;-63
2022/04/17 07:35:18;;;;;;;22.27;12.15;;;12.50;99.90;;;;;;5095494;28;20459;-62
2022/04/17 07:37:52;;;;;;;21.35;12.45;;;12.60;99.90;;;;;;5112455;28;20031;-62
2022/04/17 07:40:21;;;;;;;24.13;12.48;;;12.80;99.90;;;;;;5115885;28;20103;-62
2022/04/17 07:42:47;;;;;;;19.45;11.75;;;13.00;99.90;;;;;;5111388;28;20067;-63
2022/04/17 07:45:15;;;;;;;18.20;11.27;;;13.10;99.90;;;;;;5114850;28;20035;-63
2022/04/17 07:47:41;;;;;;;22.38;11.75;;;13.30;99.90;;;;;;5113928;28;20034;-63
2022/04/17 07:50:08;;;;;;;16.48;10.80;;;13.50;99.90;;;;;;5097144;28;20040;-63
2022/04/17 07:52:35;;;;;;;19.13;11.45;;;13.60;99.90;;;;;;5097298;28;20036;-63
2022/04/17 07:55:02;;;;;;;16.15;9.70;;;13.60;99.90;;;;;;5102802;28;20107;-62
2022/04/17 07:57:28;;;;;;;15.18;9.30;;;13.70;99.90;;;;;;5113726;28;20519;-62
2022/04/17 07:59:55;;;;;;;11.80;8.52;;;13.90;99.90;;;;;;5095435;28;20024;-63
2022/04/17 08:02:28;;;;;;;12.32;7.70;;;14.00;98.80;;;;;;5096897;28;20077;-61
2022/04/17 08:04:55;;;;;;;6.00;4.47;;;14.10;99.10;;;;;;5093879;28;20035;-62
2022/04/17 08:07:23;;;;;;;6.15;4.40;;;14.30;96.00;;;;;;5094796;28;20119;-63
2022/04/17 08:09:50;;;;;;;5.60;3.53;;;14.40;92.00;;;;;;5095738;28;20064;-62
2022/04/17 08:12:15;;;;;;;3.97;2.17;;;14.50;89.50;;;;;;5113459;28;20082;-62
2022/04/17 08:14:41;;;;;;;3.08;2.40;;;14.50;86.30;;;;;;5114151;28;20047;-62
2022/04/17 08:17:07;;;;;;;5.30;2.33;;;14.50;81.20;;;;;;5108436;28;20376;-62
2022/04/17 08:19:32;;;;;;;3.25;2.00;;;14.60;78.70;;;;;;5094352;28;20024;-62
2022/04/17 08:21:59;;;;;;;2.92;1.83;;;14.50;79.30;;;;;;5104306;28;20023;-62
2022/04/17 08:24:25;;;;;;;3.67;2.17;;;14.50;82.30;;;;;;5103909;28;20552;-61
2022/04/17 08:26:52;;;;;;;2.78;1.70;;;14.50;73.60;;;;;;5098995;28;20028;-62
2022/04/17 08:29:19;;;;;;;2.28;1.70;;;14.60;70.20;;;;;;5095685;28;20060;-61
2022/04/17 08:31:45;;;;;;;3.42;1.80;;;14.60;67.60;;;;;;5095485;28;20063;-61
2022/04/17 08:34:11;;;;;;;3.33;1.75;;;14.70;72.00;;;;;;5113363;28;20450;-62
2022/04/17 08:36:36;;;;;;;3.78;2.35;;;14.90;68.60;;;;;;5101530;28;20016;-62
2022/04/17 08:39:02;;;;;;;4.65;2.03;;;15.10;67.30;;;;;;5109825;28;20356;-62
2022/04/17 08:41:31;;;;;;;5.10;2.60;;;15.20;71.30;;;;;;5112779;28;20388;-62
2022/04/17 08:43:57;;;;;;;3.80;2.33;;;15.30;78.10;;;;;;5113500;28;20031;-62
2022/04/17 08:46:23;;;;;;;2.45;2.05;;;15.20;74.70;;;;;;5108687;28;20024;-62
2022/04/17 08:48:51;;;;;;;4.78;2.47;;;15.20;72.30;;;;;;5114102;28;20411;-62
2022/04/17 08:51:17;;;;;;;3.60;2.33;;;15.20;67.80;;;;;;5111155;28;20372;-62
2022/04/17 08:53:44;;;;;;;3.53;2.30;;;15.30;71.90;;;;;;5113332;28;20391;-62
2022/04/17 08:56:09;;;;;;;3.67;2.08;;;15.30;66.10;;;;;;5100851;28;20134;-62
2022/04/17 08:58:36;;;;;;;5.28;2.95;;;15.50;64.40;;;;;;5098500;28;20535;-62
2022/04/17 09:01:01;;;;;;;2.53;2.13;;;15.60;63.30;;;;;;5104959;28;20035;-63
2022/04/17 09:03:28;;;;;;;2.72;2.08;;;15.70;62.40;;;;;;5106758;28;20487;-62
2022/04/17 09:05:53;;;;;;;5.70;1.90;;;15.80;57.90;;;;;;5095744;28;20066;-62
2022/04/17 09:08:21;;;;;;;3.45;1.88;;;15.90;58.90;;;;;;5110130;28;20063;-62
2022/04/17 09:10:55;;;;;;;2.50;2.20;;;15.90;57.30;;;;;;5111851;28;20024;-62
2022/04/17 09:13:33;;;;;;;2.72;2.15;;;15.90;58.00;;;;;;5110421;28;20034;-62
2022/04/17 09:16:01;;;;;;;5.57;2.10;;;16.10;59.70;;;;;;5093433;28;20028;-62
2022/04/17 09:18:28;;;;;;;4.90;2.70;;;16.20;61.50;;;;;;5105394;28;20047;-62
2022/04/17 09:20:56;;;;;;;4.82;2.35;;;16.30;54.40;;;;;;5111813;28;20165;-63
2022/04/17 09:23:41;;;;;;;4.30;2.20;;;16.40;57.90;;;;;;5101833;28;20039;-61
2022/04/17 09:26:09;;;;;;;5.18;3.22;;;16.70;57.20;;;;;;5104097;28;20097;-62
2022/04/17 09:28:35;;;;;;;;;;;16.70;57.30;;;;;;5097584;28;20028;-61
2022/04/17 09:31:09;;;;;;;6.07;2.80;;;17.00;58.00;;;;;;5109415;28;19915;-62
2022/04/17 09:33:37;;;;;;;4.82;3.03;;;17.20;59.80;;;;;;5109612;28;20020;-60
2022/04/17 09:36:03;;;;;;;;;;;17.30;58.30;;;;;;5095375;28;20511;-63
2022/04/17 09:38:35;;;;;;;5.65;2.45;;;17.40;54.00;;;;;;5104868;28;19980;-62
2022/04/17 09:41:10;;;;;;;6.10;3.33;;;17.50;56.20;;;;;;5107611;28;20028;-62
2022/04/17 09:43:36;;;;;;;4.75;3.13;;;17.90;64.50;;;;;;5098975;28;20023;-62
2022/04/17 09:46:02;;;;;;;7.60;3.05;;;17.80;54.40;;;;;;5096819;28;20082;-62
2022/04/17 09:48:35;;;;;;;4.57;3.63;;;17.90;55.90;;;;;;5102156;28;20034;-62
2022/04/17 09:51:17;;;;;;;3.92;3.15;;;18.10;61.80;;;;;;5096846;28;20525;-62
2022/04/17 09:53:54;;;;;;;5.22;3.38;;;18.00;58.50;;;;;;5099606;28;20467;-62
2022/04/17 09:56:40;;;;;;;5.95;3.33;;;18.20;62.70;;;;;;5103274;28;20343;-62
2022/04/17 09:59:22;;;;;;;6.03;3.13;;;18.30;61.30;;;;;;5101719;28;20032;-63
2022/04/17 10:01:50;;;;;;;4.50;2.88;;;18.70;62.20;;;;;;5101451;28;20121;-62
2022/04/17 10:04:19;;;;;;;4.38;3.00;;;19.00;56.50;;;;;;5101169;28;20044;-63
2022/04/17 10:06:47;;;;;;;5.80;2.80;;;18.90;54.20;;;;;;5103417;28;20028;-63
2022/04/17 10:09:13;;;;;;;;;;;19.00;51.20;;;;;;5097670;28;20032;-63
2022/04/17 10:11:40;;;;;;;4.30;2.80;;;19.20;57.70;;;;;;5092510;28;19960;-63
2022/04/17 10:14:07;;;;;;;7.13;3.30;;;19.20;57.80;;;;;;5111258;28;20027;-62
2022/04/17 10:16:40;;;;;;;7.25;3.30;;;19.40;58.40;;;;;;5100543;28;20382;-62
2022/04/17 10:19:11;;;;;;;7.95;3.08;;;19.50;55.20;;;;;;5111070;28;20031;-63
2022/04/17 10:21:39;;;;;;;5.45;3.45;;;19.40;54.20;;;;;;5103974;28;20423;-63
2022/04/17 10:24:07;;;;;;;4.32;3.15;;;19.60;61.30;;;;;;5101686;28;20052;-62
2022/04/17 10:26:38;;;;;;;4.18;3.28;;;19.70;50.90;;;;;;5109925;28;20116;-63
2022/04/17 10:29:11;;;;;;;3.53;3.03;;;19.40;58.10;;;;;;5107760;28;20444;-62
2022/04/17 10:31:55;;;;;;;7.10;3.60;;;19.90;59.20;;;;;;5106857;28;20076;-63
2022/04/17 10:34:32;;;;;;;3.97;3.50;;;20.00;55.50;;;;;;5100582;28;20045;-63
2022/04/17 10:37:30;;;;;;;7.00;3.58;;;20.20;53.50;;;;;;5099768;28;20020;-63
2022/04/17 10:39:57;;;;;;;5.97;3.10;;;20.60;54.10;;;;;;5054979;28;20044;-63
2022/04/17 10:42:32;;;;;;;;;;;20.10;50.60;;;;;;5099587;28;20031;-63
2022/04/17 10:45:03;;;;;;;6.88;3.03;;;20.60;53.50;;;;;;5109337;27;20038;-63
2022/04/17 10:47:29;;;;;;;4.93;3.05;;;20.90;53.80;;;;;;5102127;28;20122;-63
2022/04/17 10:50:02;;;;;;;3.97;3.13;;;20.50;54.20;;;;;;5102433;28;20052;-63
2022/04/17 10:52:32;;;;;;;6.32;4.00;;;20.70;49.50;;;;;;5099704;28;20035;-63
2022/04/17 10:55:09;;;;;;;5.50;3.17;;;20.10;46.70;;;;;;5096007;28;20040;-63
2022/04/17 10:57:46;;;;;;;6.45;3.67;;;20.30;52.30;;;;;;5090397;28;20012;-63
2022/04/17 11:00:36;;;;;;;4.20;3.33;;;20.20;52.10;;;;;;5092289;28;20059;-62
2022/04/17 11:03:10;;;;;;;5.30;3.28;;;20.10;52.60;;;;;;5096323;28;20038;-62
2022/04/17 11:08:26;;;;;;;5.25;3.45;;;20.10;51.40;;;;;;5111746;28;20080;-61
2022/04/17 11:11:00;;;;;;;6.38;3.28;;;20.10;52.10;;;;;;5111212;28;20027;-61
2022/04/17 11:13:27;;;;;;;5.78;3.40;;;19.90;49.00;;;;;;5109550;28;20105;-61
2022/04/17 11:15:58;;;;;;;6.15;3.70;;;19.30;48.50;;;;;;5111452;28;20051;-61
2022/04/17 11:18:27;;;;;;;5.30;3.33;;;19.20;49.80;;;;;;5111625;28;20099;-61
2022/04/17 11:20:54;;;;;;;4.55;3.17;;;19.20;52.40;;;;;;5103683;28;20024;-61
2022/04/17 11:23:57;;;;;;;4.50;3.60;;;19.50;54.20;;;;;;5091268;28;20086;-60
2022/04/17 11:26:54;;;;;;;7.85;3.38;;;19.20;55.00;;;;;;5072997;28;20032;-63
2022/04/17 11:29:40;;;;;;;6.95;3.65;;;18.90;54.10;;;;;;5090660;28;20032;-62
2022/04/17 11:32:18;;;;;;;7.47;3.60;;;18.60;51.80;;;;;;5090928;28;20403;-63
2022/04/17 11:34:54;;;;;;;7.15;3.70;;;18.50;51.90;;;;;;5090969;28;20043;-63
2022/04/17 11:37:22;;;;;;;7.35;3.88;;;18.60;56.60;;;;;;5090799;28;20032;-62
2022/04/17 11:39:48;;;;;;;10.23;4.28;;;18.70;55.00;;;;;;5090826;28;20028;-63
2022/04/17 11:42:14;;;;;;;8.10;4.03;;;18.20;56.70;;;;;;5091208;28;20077;-62
2022/04/17 11:44:41;;;;;;;8.13;4.45;;;18.10;56.70;;;;;;5091171;28;20542;-63
2022/04/17 11:47:07;;;;;;;4.93;3.78;;;18.30;59.70;;;;;;5091086;28;20038;-62
2022/04/17 11:49:39;;;;;;;7.32;4.10;;;18.20;55.70;;;;;;5091135;28;20109;-63
2022/04/17 11:52:12;;;;;;;6.50;4.00;;;18.30;54.20;;;;;;5090668;28;20032;-62
2022/04/17 11:54:38;;;;;;;6.30;3.90;;;18.40;52.90;;;;;;5089786;28;20041;-62
2022/04/17 11:57:05;;;;;;;6.43;4.43;;;18.30;59.00;;;;;;5091015;28;20048;-62
2022/04/17 11:59:47;;;;;;;8.35;4.32;;;18.60;57.10;;;;;;5091161;28;20081;-62
2022/04/17 12:02:16;;;;;;;7.07;3.60;;;18.60;56.10;;;;;;5091040;28;20438;-62
2022/04/17 12:04:46;;;;;;;6.13;4.18;;;18.50;54.40;;;;;;5090614;28;20092;-62
2022/04/17 12:07:13;;;;;;;7.90;4.22;;;18.60;53.90;;;;;;5090896;28;20380;-63
2022/04/17 12:09:40;;;;;;;7.93;3.85;;;18.20;55.10;;;;;;5090740;28;20059;-62
2022/04/17 12:12:32;;;;;;;5.18;3.45;;;18.30;54.20;;;;;;5090755;28;20048;-62
2022/04/17 12:15:00;;;;;;;6.03;4.18;;;18.80;53.70;;;;;;5092666;28;20032;-63
2022/04/17 12:17:25;;;;;;;6.75;3.35;;;19.00;51.60;;;;;;5094790;28;20105;-63
2022/04/17 12:19:51;;;;;;;6.65;4.22;;;19.20;50.30;;;;;;5094280;28;20028;-61
2022/04/17 12:22:18;;;;;;;7.57;3.85;;;19.80;55.20;;;;;;5094447;28;20020;-61
2022/04/17 12:24:45;;;;;;;8.98;4.45;;;19.90;50.40;;;;;;5094229;28;20024;-61
2022/04/17 12:27:16;;;;;;;8.93;4.40;;;19.80;47.90;;;;;;5094418;28;20063;-61
2022/04/17 12:29:42;;;;;;;9.23;4.82;;;20.00;51.50;;;;;;5092683;28;20077;-61
2022/04/17 12:32:28;;;;;;;7.03;4.10;;;20.70;50.80;;;;;;5094223;28;20032;-62
2022/04/17 12:35:03;;;;;;;5.45;3.92;;;20.40;44.60;;;;;;5094179;28;20595;-61
2022/04/17 12:37:35;;;;;;;7.00;4.43;;;19.80;48.70;;;;;;5094513;28;20480;-61
2022/04/17 12:40:21;;;;;;;7.00;4.68;;;20.20;46.90;;;;;;5093942;28;20016;-61
2022/04/17 12:42:48;;;;;;;6.30;4.35;;;20.20;49.40;;;;;;5094076;28;20479;-62
2022/04/17 12:45:25;;;;;;;7.10;3.97;;;20.60;46.70;;;;;;5094042;28;20028;-61
2022/04/17 12:48:07;;;;;;;6.07;4.25;;;21.20;50.70;;;;;;5093940;28;20036;-62
2022/04/17 12:50:34;;;;;;;6.25;3.88;;;21.10;46.50;;;;;;5093857;28;20507;-62
2022/04/17 12:53:01;;;;;;;5.03;3.70;;;21.30;46.50;;;;;;5092494;28;20036;-61
2022/04/17 12:55:34;;;;;;;5.78;3.92;;;21.00;42.30;;;;;;5094070;28;20487;-61
2022/04/17 12:58:04;;;;;;;5.22;3.83;;;21.70;45.90;;;;;;5093821;28;20107;-61